Caranaiba, Brazil
Current Conditions -  °F | °C
As of 7:00 PM on Monday 24 Nov 2014 (Local Time) from SBBQ Reporting Station
Light Rain Light Rain  
Wind Chill: 68°   Ceiling: 2000
Heat Index: 68°   Visibility: 5mi
Dew Point: 64°   Wind: 5mph
Humidity: 88%   Direction: 40°NE
Pressure: 30.12"   Gusts: NA
Location:  20.88°S, 43.74°W
Report Text: SBBQ 242100Z 04004KT 8000 -RA SCT007 BKN020 FEW025TCU OVC070 20/18 Q1020 RETS
Loading
Personal Weather Stations






























Interactive Weather Map New forecast layout! Learn more

10-Day Weather Forecast

Advertisements
Track Severe Weather on mobile